sensor_id;sensor_type;location;lat;lon;timestamp;pressure;altitude;pressure_sealevel;temperature;humidity
6506;BME280;3286;49.858;8.768;2024-02-15T00:02:07;99558.88;;;13.30;63.37
6506;BME280;3286;49.858;8.768;2024-02-15T00:04:34;99562.31;;;13.49;62.63
6506;BME280;3286;49.858;8.768;2024-02-15T00:07:01;99557.88;;;13.66;61.85
6506;BME280;3286;49.858;8.768;2024-02-15T00:09:29;99560.22;;;13.34;62.88
6506;BME280;3286;49.858;8.768;2024-02-15T00:11:56;99548.13;;;13.74;61.64
6506;BME280;3286;49.858;8.768;2024-02-15T00:14:24;99552.75;;;13.81;61.31
6506;BME280;3286;49.858;8.768;2024-02-15T00:16:51;99545.50;;;13.91;60.78
6506;BME280;3286;49.858;8.768;2024-02-15T00:19:17;99546.97;;;13.85;60.63
6506;BME280;3286;49.858;8.768;2024-02-15T00:21:44;99540.34;;;13.81;60.96
6506;BME280;3286;49.858;8.768;2024-02-15T00:24:10;99545.09;;;13.53;61.59
6506;BME280;3286;49.858;8.768;2024-02-15T00:26:39;99543.97;;;13.72;60.83
6506;BME280;3286;49.858;8.768;2024-02-15T00:29:05;99544.75;;;13.47;61.10
6506;BME280;3286;49.858;8.768;2024-02-15T00:31:32;99543.13;;;13.80;60.60
6506;BME280;3286;49.858;8.768;2024-02-15T00:33:58;99541.78;;;13.59;61.14
6506;BME280;3286;49.858;8.768;2024-02-15T00:36:27;99548.25;;;13.22;62.20
6506;BME280;3286;49.858;8.768;2024-02-15T00:38:55;99549.06;;;13.49;61.28
6506;BME280;3286;49.858;8.768;2024-02-15T00:41:21;99546.06;;;13.52;61.64
6506;BME280;3286;49.858;8.768;2024-02-15T00:43:49;99544.94;;;13.28;62.28
6506;BME280;3286;49.858;8.768;2024-02-15T00:46:16;99547.44;;;13.64;61.18
6506;BME280;3286;49.858;8.768;2024-02-15T00:48:43;99556.50;;;13.45;61.48
6506;BME280;3286;49.858;8.768;2024-02-15T00:51:09;99548.22;;;13.56;60.99
6506;BME280;3286;49.858;8.768;2024-02-15T00:53:36;99552.78;;;13.38;61.76
6506;BME280;3286;49.858;8.768;2024-02-15T00:56:03;99551.06;;;13.63;61.04
6506;BME280;3286;49.858;8.768;2024-02-15T01:03:34;99550.16;;;14.05;59.68
6506;BME280;3286;49.858;8.768;2024-02-15T01:06:00;99552.63;;;13.82;60.34
6506;BME280;3286;49.858;8.768;2024-02-15T01:08:28;99549.88;;;13.49;61.22
6506;BME280;3286;49.858;8.768;2024-02-15T01:10:54;99547.09;;;13.59;60.78
6506;BME280;3286;49.858;8.768;2024-02-15T01:13:19;99540.13;;;13.58;61.38
6506;BME280;3286;49.858;8.768;2024-02-15T01:15:45;99552.81;;;13.89;59.75
6506;BME280;3286;49.858;8.768;2024-02-15T01:18:11;99548.16;;;13.99;59.90
6506;BME280;3286;49.858;8.768;2024-02-15T01:20:39;99561.16;;;13.51;61.23
6506;BME280;3286;49.858;8.768;2024-02-15T01:23:06;99556.13;;;13.91;59.97
6506;BME280;3286;49.858;8.768;2024-02-15T01:25:33;99550.03;;;13.47;61.35
6506;BME280;3286;49.858;8.768;2024-02-15T01:27:59;99551.63;;;13.83;60.53
6506;BME280;3286;49.858;8.768;2024-02-15T01:30:27;99552.59;;;13.31;61.81
6506;BME280;3286;49.858;8.768;2024-02-15T01:32:54;99561.66;;;13.46;61.43
6506;BME280;3286;49.858;8.768;2024-02-15T01:35:21;99545.09;;;13.61;61.07
6506;BME280;3286;49.858;8.768;2024-02-15T01:37:49;99547.88;;;13.51;60.93
6506;BME280;3286;49.858;8.768;2024-02-15T01:40:16;99551.03;;;13.46;61.47
6506;BME280;3286;49.858;8.768;2024-02-15T01:42:44;99553.94;;;13.35;62.13
6506;BME280;3286;49.858;8.768;2024-02-15T01:45:11;99548.06;;;13.23;62.18
6506;BME280;3286;49.858;8.768;2024-02-15T01:47:38;99549.88;;;13.57;60.77
6506;BME280;3286;49.858;8.768;2024-02-15T01:50:06;99550.47;;;13.35;61.74
6506;BME280;3286;49.858;8.768;2024-02-15T01:52:34;99554.09;;;13.33;61.51
6506;BME280;3286;49.858;8.768;2024-02-15T01:55:03;99546.28;;;13.67;61.23
6506;BME280;3286;49.858;8.768;2024-02-15T01:57:33;99548.38;;;13.20;62.29
6506;BME280;3286;49.858;8.768;2024-02-15T02:00:00;99540.09;;;13.50;61.07
6506;BME280;3286;49.858;8.768;2024-02-15T02:02:31;99542.66;;;13.93;60.31
6506;BME280;3286;49.858;8.768;2024-02-15T02:05:00;99543.47;;;13.68;60.58
6506;BME280;3286;49.858;8.768;2024-02-15T02:07:26;99539.69;;;13.96;59.91
6506;BME280;3286;49.858;8.768;2024-02-15T02:09:53;99552.59;;;13.74;60.25
6506;BME280;3286;49.858;8.768;2024-02-15T02:12:21;99545.63;;;13.73;60.41
6506;BME280;3286;49.858;8.768;2024-02-15T02:14:50;99541.75;;;13.51;60.89
6506;BME280;3286;49.858;8.768;2024-02-15T02:17:16;99547.88;;;13.16;62.29
6506;BME280;3286;49.858;8.768;2024-02-15T02:19:45;99541.72;;;13.08;62.44
6506;BME280;3286;49.858;8.768;2024-02-15T02:22:16;99537.59;;;13.13;62.47
6506;BME280;3286;49.858;8.768;2024-02-15T02:24:56;99539.66;;;13.28;61.91
6506;BME280;3286;49.858;8.768;2024-02-15T02:27:24;99535.81;;;13.57;61.04
6506;BME280;3286;49.858;8.768;2024-02-15T02:29:52;99535.03;;;13.81;60.26
6506;BME280;3286;49.858;8.768;2024-02-15T02:32:20;99528.56;;;13.92;59.80
6506;BME280;3286;49.858;8.768;2024-02-15T02:34:46;99529.72;;;13.38;60.80
6506;BME280;3286;49.858;8.768;2024-02-15T02:37:13;99537.50;;;13.83;59.95
6506;BME280;3286;49.858;8.768;2024-02-15T02:39:39;99534.00;;;13.31;61.79
6506;BME280;3286;49.858;8.768;2024-02-15T02:42:09;99529.94;;;13.45;60.73
6506;BME280;3286;49.858;8.768;2024-02-15T02:44:36;99530.31;;;13.15;62.24
6506;BME280;3286;49.858;8.768;2024-02-15T02:47:02;99520.69;;;13.57;60.56
6506;BME280;3286;49.858;8.768;2024-02-15T02:49:29;99522.75;;;13.80;59.81
6506;BME280;3286;49.858;8.768;2024-02-15T02:51:56;99518.44;;;13.96;59.92
6506;BME280;3286;49.858;8.768;2024-02-15T02:54:22;99518.38;;;13.62;60.19
6506;BME280;3286;49.858;8.768;2024-02-15T02:56:49;99518.94;;;13.91;59.43
6506;BME280;3286;49.858;8.768;2024-02-15T02:59:17;99521.78;;;14.14;59.01
6506;BME280;3286;49.858;8.768;2024-02-15T03:01:44;99519.56;;;13.76;60.04
6506;BME280;3286;49.858;8.768;2024-02-15T03:04:11;99513.91;;;13.55;60.50
6506;BME280;3286;49.858;8.768;2024-02-15T03:06:42;99518.34;;;13.46;60.39
6506;BME280;3286;49.858;8.768;2024-02-15T03:09:08;99516.44;;;13.98;59.39
6506;BME280;3286;49.858;8.768;2024-02-15T03:11:35;99522.94;;;14.03;59.05
6506;BME280;3286;49.858;8.768;2024-02-15T03:14:03;99519.63;;;14.10;58.63
6506;BME280;3286;49.858;8.768;2024-02-15T03:16:31;99521.75;;;13.81;59.54
6506;BME280;3286;49.858;8.768;2024-02-15T03:18:59;99515.25;;;13.75;59.26
6506;BME280;3286;49.858;8.768;2024-02-15T03:21:27;99518.25;;;13.72;59.46
6506;BME280;3286;49.858;8.768;2024-02-15T03:23:54;99513.66;;;14.32;58.18
6506;BME280;3286;49.858;8.768;2024-02-15T03:26:29;99506.16;;;14.03;58.93
6506;BME280;3286;49.858;8.768;2024-02-15T03:28:56;99511.47;;;14.36;57.80
6506;BME280;3286;49.858;8.768;2024-02-15T03:31:23;99523.22;;;13.84;59.17
6506;BME280;3286;49.858;8.768;2024-02-15T03:33:51;99513.78;;;13.98;59.22
6506;BME280;3286;49.858;8.768;2024-02-15T03:36:19;99515.13;;;14.02;58.72
6506;BME280;3286;49.858;8.768;2024-02-15T03:38:47;99506.50;;;14.00;58.86
6506;BME280;3286;49.858;8.768;2024-02-15T03:41:13;99510.16;;;14.24;58.34
6506;BME280;3286;49.858;8.768;2024-02-15T03:43:40;99510.94;;;13.83;59.04
6506;BME280;3286;49.858;8.768;2024-02-15T03:46:07;99509.66;;;14.12;58.64
6506;BME280;3286;49.858;8.768;2024-02-15T03:48:37;99511.13;;;13.98;58.95
6506;BME280;3286;49.858;8.768;2024-02-15T03:51:05;99509.16;;;14.25;57.94
6506;BME280;3286;49.858;8.768;2024-02-15T03:53:34;99518.69;;;13.59;60.09
6506;BME280;3286;49.858;8.768;2024-02-15T03:56:03;99513.38;;;13.51;60.43
6506;BME280;3286;49.858;8.768;2024-02-15T03:58:30;99515.25;;;13.84;59.48
6506;BME280;3286;49.858;8.768;2024-02-15T04:00:58;99520.22;;;13.70;59.31
6506;BME280;3286;49.858;8.768;2024-02-15T04:03:24;99518.03;;;13.49;60.33
6506;BME280;3286;49.858;8.768;2024-02-15T04:05:51;99517.09;;;13.91;58.75
6506;BME280;3286;49.858;8.768;2024-02-15T04:08:19;99512.31;;;14.20;58.45
6506;BME280;3286;49.858;8.768;2024-02-15T04:10:46;99512.78;;;14.07;58.46
6506;BME280;3286;49.858;8.768;2024-02-15T04:13:13;99514.63;;;14.15;58.29
6506;BME280;3286;49.858;8.768;2024-02-15T04:15:39;99511.13;;;14.06;58.87
6506;BME280;3286;49.858;8.768;2024-02-15T04:18:07;99508.00;;;13.94;58.95
6506;BME280;3286;49.858;8.768;2024-02-15T04:20:33;99506.34;;;14.10;57.98
6506;BME280;3286;49.858;8.768;2024-02-15T04:23:00;99505.00;;;13.97;58.53
6506;BME280;3286;49.858;8.768;2024-02-15T04:25:28;99502.34;;;14.22;57.83
6506;BME280;3286;49.858;8.768;2024-02-15T04:27:56;99500.34;;;14.16;58.22
6506;BME280;3286;49.858;8.768;2024-02-15T04:30:28;99497.53;;;14.17;58.10
6506;BME280;3286;49.858;8.768;2024-02-15T04:32:55;99501.69;;;14.28;57.51
6506;BME280;3286;49.858;8.768;2024-02-15T04:35:22;99501.53;;;14.22;57.79
6506;BME280;3286;49.858;8.768;2024-02-15T04:37:50;99506.19;;;14.11;58.19
6506;BME280;3286;49.858;8.768;2024-02-15T04:40:18;99502.84;;;14.26;57.51
6506;BME280;3286;49.858;8.768;2024-02-15T04:42:46;99502.19;;;14.24;57.22
6506;BME280;3286;49.858;8.768;2024-02-15T04:45:13;99505.16;;;14.29;57.30
6506;BME280;3286;49.858;8.768;2024-02-15T04:47:40;99504.19;;;14.22;57.49
6506;BME280;3286;49.858;8.768;2024-02-15T04:50:07;99505.84;;;14.23;57.59
6506;BME280;3286;49.858;8.768;2024-02-15T04:52:34;99501.53;;;14.22;57.42
6506;BME280;3286;49.858;8.768;2024-02-15T04:55:01;99502.16;;;14.07;57.68
6506;BME280;3286;49.858;8.768;2024-02-15T04:57:30;99497.88;;;14.14;57.54
6506;BME280;3286;49.858;8.768;2024-02-15T04:59:59;99496.22;;;14.22;57.12
6506;BME280;3286;49.858;8.768;2024-02-15T05:02:26;99497.69;;;14.16;57.78
6506;BME280;3286;49.858;8.768;2024-02-15T05:04:53;99491.06;;;14.03;57.88
6506;BME280;3286;49.858;8.768;2024-02-15T05:07:24;99487.25;;;14.14;57.82
6506;BME280;3286;49.858;8.768;2024-02-15T05:09:51;99488.25;;;14.13;57.41
6506;BME280;3286;49.858;8.768;2024-02-15T05:12:22;99489.06;;;14.05;57.85
6506;BME280;3286;49.858;8.768;2024-02-15T05:14:49;99487.56;;;13.86;58.18
6506;BME280;3286;49.858;8.768;2024-02-15T05:17:17;99483.75;;;13.89;58.23
6506;BME280;3286;49.858;8.768;2024-02-15T05:19:44;99489.38;;;13.86;58.56
6506;BME280;3286;49.858;8.768;2024-02-15T05:22:11;99485.56;;;14.05;57.75
6506;BME280;3286;49.858;8.768;2024-02-15T05:24:38;99488.38;;;14.20;57.32
6506;BME280;3286;49.858;8.768;2024-02-15T05:27:05;99489.72;;;14.32;57.02
6506;BME280;3286;49.858;8.768;2024-02-15T05:29:32;99484.56;;;13.89;57.98
6506;BME280;3286;49.858;8.768;2024-02-15T05:32:01;99486.91;;;14.09;57.68
6506;BME280;3286;49.858;8.768;2024-02-15T05:34:32;99484.41;;;14.24;56.99
6506;BME280;3286;49.858;8.768;2024-02-15T05:37:04;99482.09;;;13.96;57.59
6506;BME280;3286;49.858;8.768;2024-02-15T05:39:32;99491.88;;;13.79;58.29
6506;BME280;3286;49.858;8.768;2024-02-15T05:41:59;99481.91;;;14.06;57.33
6506;BME280;3286;49.858;8.768;2024-02-15T05:44:26;99480.59;;;13.85;57.97
6506;BME280;3286;49.858;8.768;2024-02-15T05:46:53;99480.94;;;13.82;58.20
6506;BME280;3286;49.858;8.768;2024-02-15T05:49:20;99480.78;;;13.92;58.01
6506;BME280;3286;49.858;8.768;2024-02-15T05:51:51;99479.44;;;13.96;57.58
6506;BME280;3286;49.858;8.768;2024-02-15T05:54:18;99469.63;;;13.97;58.14
6506;BME280;3286;49.858;8.768;2024-02-15T05:56:48;99467.66;;;13.90;57.87
6506;BME280;3286;49.858;8.768;2024-02-15T05:59:17;99463.84;;;13.93;57.61
6506;BME280;3286;49.858;8.768;2024-02-15T06:01:45;99464.47;;;13.87;58.20
6506;BME280;3286;49.858;8.768;2024-02-15T06:04:14;99470.63;;;13.71;58.70
6506;BME280;3286;49.858;8.768;2024-02-15T06:06:40;99471.16;;;13.91;58.04
6506;BME280;3286;49.858;8.768;2024-02-15T06:09:09;99467.50;;;14.00;57.76
6506;BME280;3286;49.858;8.768;2024-02-15T06:11:36;99467.16;;;13.95;58.02
6506;BME280;3286;49.858;8.768;2024-02-15T06:14:03;99464.16;;;13.98;57.95
6506;BME280;3286;49.858;8.768;2024-02-15T06:16:31;99462.50;;;13.89;58.04
6506;BME280;3286;49.858;8.768;2024-02-15T06:18:58;99461.47;;;13.57;58.74
6506;BME280;3286;49.858;8.768;2024-02-15T06:21:25;99462.00;;;13.85;57.59
6506;BME280;3286;49.858;8.768;2024-02-15T06:23:51;99465.47;;;13.77;58.34
6506;BME280;3286;49.858;8.768;2024-02-15T06:26:19;99473.81;;;13.91;57.58
6506;BME280;3286;49.858;8.768;2024-02-15T06:28:46;99475.78;;;14.05;57.08
6506;BME280;3286;49.858;8.768;2024-02-15T06:31:31;99469.97;;;13.94;57.71
6506;BME280;3286;49.858;8.768;2024-02-15T06:34:14;99468.31;;;13.68;57.84
6506;BME280;3286;49.858;8.768;2024-02-15T06:36:59;99464.81;;;13.59;58.28
6506;BME280;3286;49.858;8.768;2024-02-15T06:39:43;99468.59;;;13.65;58.16
6506;BME280;3286;49.858;8.768;2024-02-15T06:42:13;99483.41;;;13.75;58.42
6506;BME280;3286;49.858;8.768;2024-02-15T06:44:42;99473.47;;;13.94;57.69
6506;BME280;3286;49.858;8.768;2024-02-15T06:47:08;99472.28;;;13.88;57.69
6506;BME280;3286;49.858;8.768;2024-02-15T06:49:36;99470.44;;;13.81;57.81
6506;BME280;3286;49.858;8.768;2024-02-15T06:52:05;99469.50;;;13.90;57.82
6506;BME280;3286;49.858;8.768;2024-02-15T06:54:32;99464.50;;;14.03;57.31
6506;BME280;3286;49.858;8.768;2024-02-15T06:56:59;99467.63;;;14.07;57.24
6506;BME280;3286;49.858;8.768;2024-02-15T06:59:28;99473.59;;;14.34;56.80
6506;BME280;3286;49.858;8.768;2024-02-15T07:01:55;99472.97;;;13.90;57.64
6506;BME280;3286;49.858;8.768;2024-02-15T07:04:22;99466.66;;;14.16;56.99
6506;BME280;3286;49.858;8.768;2024-02-15T07:06:51;99475.44;;;14.09;57.41
6506;BME280;3286;49.858;8.768;2024-02-15T07:09:19;99473.25;;;13.54;58.92
6506;BME280;3286;49.858;8.768;2024-02-15T07:11:48;99475.09;;;13.70;58.38
6506;BME280;3286;49.858;8.768;2024-02-15T07:14:15;99473.63;;;13.93;58.00
6506;BME280;3286;49.858;8.768;2024-02-15T07:16:45;99465.00;;;14.15;57.09
6506;BME280;3286;49.858;8.768;2024-02-15T07:19:12;99470.16;;;13.92;58.06
6506;BME280;3286;49.858;8.768;2024-02-15T07:21:39;99471.28;;;13.89;57.96
6506;BME280;3286;49.858;8.768;2024-02-15T07:24:06;99470.16;;;14.00;57.46
6506;BME280;3286;49.858;8.768;2024-02-15T07:26:32;99477.13;;;13.93;58.18
6506;BME280;3286;49.858;8.768;2024-02-15T07:29:02;99477.78;;;14.03;57.64
6506;BME280;3286;49.858;8.768;2024-02-15T07:31:31;99479.44;;;13.96;57.91
6506;BME280;3286;49.858;8.768;2024-02-15T07:33:59;99488.06;;;14.15;57.73
6506;BME280;3286;49.858;8.768;2024-02-15T07:36:26;99475.94;;;13.87;57.65
6506;BME280;3286;49.858;8.768;2024-02-15T07:38:54;99482.75;;;14.07;57.14
6506;BME280;3286;49.858;8.768;2024-02-15T07:41:23;99475.28;;;13.94;56.83
6506;BME280;3286;49.858;8.768;2024-02-15T07:43:50;99476.28;;;14.01;57.27
6506;BME280;3286;49.858;8.768;2024-02-15T07:46:19;99481.41;;;14.19;57.33
6506;BME280;3286;49.858;8.768;2024-02-15T07:48:47;99481.44;;;14.02;57.86
6506;BME280;3286;49.858;8.768;2024-02-15T07:51:17;99477.59;;;14.05;58.04
6506;BME280;3286;49.858;8.768;2024-02-15T07:53:44;99482.41;;;14.18;57.71
6506;BME280;3286;49.858;8.768;2024-02-15T07:56:12;99482.56;;;14.33;57.37
6506;BME280;3286;49.858;8.768;2024-02-15T07:58:39;99485.41;;;14.07;58.27
6506;BME280;3286;49.858;8.768;2024-02-15T08:01:07;99478.25;;;13.99;59.04
6506;BME280;3286;49.858;8.768;2024-02-15T08:03:34;99475.44;;;13.84;59.29
6506;BME280;3286;49.858;8.768;2024-02-15T08:06:01;99481.25;;;13.96;58.75
6506;BME280;3286;49.858;8.768;2024-02-15T08:08:33;99480.91;;;14.07;58.49
6506;BME280;3286;49.858;8.768;2024-02-15T08:11:02;99486.72;;;14.19;58.55
6506;BME280;3286;49.858;8.768;2024-02-15T08:13:28;99485.88;;;14.35;57.63
6506;BME280;3286;49.858;8.768;2024-02-15T08:15:55;99480.69;;;14.58;56.76
6506;BME280;3286;49.858;8.768;2024-02-15T08:18:22;99487.88;;;14.49;56.43
6506;BME280;3286;49.858;8.768;2024-02-15T08:20:50;99484.91;;;14.28;56.90
6506;BME280;3286;49.858;8.768;2024-02-15T08:23:16;99490.53;;;14.58;56.15
6506;BME280;3286;49.858;8.768;2024-02-15T08:25:44;99483.34;;;15.23;55.27
6506;BME280;3286;49.858;8.768;2024-02-15T08:28:11;99493.03;;;15.16;55.94
6506;BME280;3286;49.858;8.768;2024-02-15T08:30:38;99485.69;;;14.61;57.39
6506;BME280;3286;49.858;8.768;2024-02-15T08:33:05;99495.09;;;14.89;56.73
6506;BME280;3286;49.858;8.768;2024-02-15T08:35:31;99482.06;;;15.11;55.34
6506;BME280;3286;49.858;8.768;2024-02-15T08:37:58;99487.66;;;15.24;54.93
6506;BME280;3286;49.858;8.768;2024-02-15T08:40:25;99488.63;;;14.91;55.04
6506;BME280;3286;49.858;8.768;2024-02-15T08:42:53;99477.09;;;15.39;54.52
6506;BME280;3286;49.858;8.768;2024-02-15T08:45:20;99478.94;;;15.39;54.11
6506;BME280;3286;49.858;8.768;2024-02-15T08:47:48;99478.78;;;15.63;53.98
6506;BME280;3286;49.858;8.768;2024-02-15T08:50:15;99473.75;;;15.69;53.59
6506;BME280;3286;49.858;8.768;2024-02-15T08:52:42;99477.69;;;15.58;53.00
6506;BME280;3286;49.858;8.768;2024-02-15T08:55:10;99474.06;;;15.74;52.68
6506;BME280;3286;49.858;8.768;2024-02-15T08:57:40;99471.16;;;15.84;51.57
6506;BME280;3286;49.858;8.768;2024-02-15T09:00:10;99474.78;;;15.36;52.22
6506;BME280;3286;49.858;8.768;2024-02-15T09:02:38;99464.16;;;15.36;52.44
6506;BME280;3286;49.858;8.768;2024-02-15T09:05:06;99471.88;;;14.74;53.45
6506;BME280;3286;49.858;8.768;2024-02-15T09:07:32;99470.88;;;15.24;52.70
6506;BME280;3286;49.858;8.768;2024-02-15T09:09:59;99477.53;;;14.80;54.25
6506;BME280;3286;49.858;8.768;2024-02-15T09:12:25;99477.25;;;15.14;53.22
6506;BME280;3286;49.858;8.768;2024-02-15T09:14:52;99479.25;;;14.31;54.34
6506;BME280;3286;49.858;8.768;2024-02-15T09:17:20;99471.84;;;14.91;53.38
6506;BME280;3286;49.858;8.768;2024-02-15T09:19:48;99469.78;;;15.10;53.69
6506;BME280;3286;49.858;8.768;2024-02-15T09:22:15;99477.38;;;15.53;51.77
6506;BME280;3286;49.858;8.768;2024-02-15T09:24:42;99472.44;;;15.10;52.91
6506;BME280;3286;49.858;8.768;2024-02-15T09:27:08;99461.78;;;16.11;50.62
6506;BME280;3286;49.858;8.768;2024-02-15T09:29:37;99464.06;;;16.22;50.61
6506;BME280;3286;49.858;8.768;2024-02-15T09:32:05;99462.63;;;16.65;49.50
6506;BME280;3286;49.858;8.768;2024-02-15T09:34:33;99464.75;;;16.55;49.48
6506;BME280;3286;49.858;8.768;2024-02-15T09:37:00;99459.13;;;15.64;51.60
6506;BME280;3286;49.858;8.768;2024-02-15T09:39:27;99455.78;;;15.71;51.37
6506;BME280;3286;49.858;8.768;2024-02-15T09:41:53;99459.53;;;16.23;50.52
6506;BME280;3286;49.858;8.768;2024-02-15T09:44:24;99448.78;;;16.31;50.30
6506;BME280;3286;49.858;8.768;2024-02-15T09:46:59;99458.28;;;16.34;50.21
6506;BME280;3286;49.858;8.768;2024-02-15T09:49:30;99456.38;;;16.43;50.08
6506;BME280;3286;49.858;8.768;2024-02-15T09:52:02;99452.66;;;16.29;50.05
6506;BME280;3286;49.858;8.768;2024-02-15T09:54:29;99456.63;;;16.48;49.71
6506;BME280;3286;49.858;8.768;2024-02-15T09:57:00;99449.47;;;16.93;48.33
6506;BME280;3286;49.858;8.768;2024-02-15T09:59:27;99455.78;;;16.47;49.50
6506;BME280;3286;49.858;8.768;2024-02-15T10:01:58;99446.16;;;16.76;49.08
6506;BME280;3286;49.858;8.768;2024-02-15T10:04:25;99444.75;;;16.95;48.86
6506;BME280;3286;49.858;8.768;2024-02-15T10:06:51;99443.94;;;16.95;48.19
6506;BME280;3286;49.858;8.768;2024-02-15T10:09:29;99437.25;;;17.36;47.58
6506;BME280;3286;49.858;8.768;2024-02-15T10:11:57;99435.53;;;17.72;47.28
6506;BME280;3286;49.858;8.768;2024-02-15T10:14:24;99438.59;;;17.47;47.43
6506;BME280;3286;49.858;8.768;2024-02-15T10:16:52;99437.19;;;17.73;46.90
6506;BME280;3286;49.858;8.768;2024-02-15T10:19:19;99428.69;;;17.62;46.98
6506;BME280;3286;49.858;8.768;2024-02-15T10:21:51;99437.38;;;18.15;45.70
6506;BME280;3286;49.858;8.768;2024-02-15T10:24:18;99433.84;;;18.07;46.08
6506;BME280;3286;49.858;8.768;2024-02-15T10:26:48;99432.03;;;18.15;45.75
6506;BME280;3286;49.858;8.768;2024-02-15T10:29:15;99424.06;;;18.00;45.67
6506;BME280;3286;49.858;8.768;2024-02-15T10:31:54;99430.91;;;18.31;45.35
6506;BME280;3286;49.858;8.768;2024-02-15T10:34:21;99423.59;;;17.67;46.62
6506;BME280;3286;49.858;8.768;2024-02-15T10:36:48;99419.59;;;18.64;44.80
6506;BME280;3286;49.858;8.768;2024-02-15T10:39:16;99411.41;;;18.72;43.87
6506;BME280;3286;49.858;8.768;2024-02-15T10:41:47;99411.22;;;18.80;43.70
6506;BME280;3286;49.858;8.768;2024-02-15T10:44:16;99406.72;;;18.88;44.18
6506;BME280;3286;49.858;8.768;2024-02-15T10:46:48;99409.69;;;19.00;43.65
6506;BME280;3286;49.858;8.768;2024-02-15T10:49:19;99407.63;;;19.02;43.38
6506;BME280;3286;49.858;8.768;2024-02-15T10:51:50;99402.19;;;19.50;42.95
6506;BME280;3286;49.858;8.768;2024-02-15T10:54:26;99399.50;;;19.50;42.97
6506;BME280;3286;49.858;8.768;2024-02-15T10:57:03;99401.97;;;19.45;42.43
6506;BME280;3286;49.858;8.768;2024-02-15T10:59:32;99391.28;;;19.65;41.85
6506;BME280;3286;49.858;8.768;2024-02-15T11:02:02;99383.88;;;20.08;41.05
6506;BME280;3286;49.858;8.768;2024-02-15T11:04:35;99387.56;;;19.87;41.77
6506;BME280;3286;49.858;8.768;2024-02-15T11:07:03;99380.56;;;20.12;40.55
6506;BME280;3286;49.858;8.768;2024-02-15T11:09:31;99379.06;;;20.44;40.10
6506;BME280;3286;49.858;8.768;2024-02-15T11:11:59;99378.69;;;20.13;40.24
6506;BME280;3286;49.858;8.768;2024-02-15T11:14:27;99366.75;;;20.22;39.90
6506;BME280;3286;49.858;8.768;2024-02-15T11:16:54;99369.91;;;20.65;38.90
6506;BME280;3286;49.858;8.768;2024-02-15T11:19:43;99361.72;;;20.46;39.39
6506;BME280;3286;49.858;8.768;2024-02-15T11:22:13;99363.84;;;20.24;40.12
6506;BME280;3286;49.858;8.768;2024-02-15T11:24:47;99362.41;;;19.67;40.17
6506;BME280;3286;49.858;8.768;2024-02-15T11:27:25;99358.47;;;20.24;39.30
6506;BME280;3286;49.858;8.768;2024-02-15T11:29:54;99357.00;;;20.41;38.74
6506;BME280;3286;49.858;8.768;2024-02-15T11:32:42;99358.78;;;20.61;38.03
6506;BME280;3286;49.858;8.768;2024-02-15T11:35:15;99347.31;;;20.40;38.89
6506;BME280;3286;49.858;8.768;2024-02-15T11:37:58;99347.22;;;18.79;40.94
6506;BME280;3286;49.858;8.768;2024-02-15T11:40:25;99339.91;;;19.28;41.15
6506;BME280;3286;49.858;8.768;2024-02-15T11:42:56;99334.19;;;19.98;39.76
6506;BME280;3286;49.858;8.768;2024-02-15T11:45:25;99332.53;;;19.97;39.42
6506;BME280;3286;49.858;8.768;2024-02-15T11:47:53;99331.50;;;19.98;39.20
6506;BME280;3286;49.858;8.768;2024-02-15T11:50:22;99330.00;;;20.30;39.13
6506;BME280;3286;49.858;8.768;2024-02-15T11:52:49;99331.28;;;19.87;39.51
6506;BME280;3286;49.858;8.768;2024-02-15T11:55:20;99323.88;;;20.02;39.40
6506;BME280;3286;49.858;8.768;2024-02-15T11:57:59;99325.00;;;20.40;38.63
6506;BME280;3286;49.858;8.768;2024-02-15T12:00:31;99318.41;;;20.36;38.65
6506;BME280;3286;49.858;8.768;2024-02-15T12:03:17;99311.91;;;20.64;38.43
6506;BME280;3286;49.858;8.768;2024-02-15T12:06:03;99311.94;;;20.50;38.31
6506;BME280;3286;49.858;8.768;2024-02-15T12:08:49;99310.75;;;20.39;38.62
6506;BME280;3286;49.858;8.768;2024-02-15T12:11:34;99305.34;;;20.53;38.35
6506;BME280;3286;49.858;8.768;2024-02-15T12:14:19;99310.47;;;20.54;38.52
6506;BME280;3286;49.858;8.768;2024-02-15T12:17:04;99304.16;;;20.88;38.08
6506;BME280;3286;49.858;8.768;2024-02-15T12:19:50;99293.28;;;20.69;38.50
6506;BME280;3286;49.858;8.768;2024-02-15T12:22:20;99282.28;;;21.16;36.93
6506;BME280;3286;49.858;8.768;2024-02-15T12:24:57;99274.13;;;21.04;37.41
6506;BME280;3286;49.858;8.768;2024-02-15T12:27:25;99274.63;;;20.42;38.34
6506;BME280;3286;49.858;8.768;2024-02-15T12:29:55;99274.28;;;20.70;37.87
6506;BME280;3286;49.858;8.768;2024-02-15T12:32:23;99269.97;;;21.08;37.31
6506;BME280;3286;49.858;8.768;2024-02-15T12:34:51;99268.38;;;20.55;38.74
6506;BME280;3286;49.858;8.768;2024-02-15T12:37:18;99264.06;;;20.93;38.39
6506;BME280;3286;49.858;8.768;2024-02-15T12:39:46;99260.38;;;21.45;37.31
6506;BME280;3286;49.858;8.768;2024-02-15T12:42:20;99267.00;;;20.78;37.42
6506;BME280;3286;49.858;8.768;2024-02-15T12:44:48;99259.06;;;21.03;37.23
6506;BME280;3286;49.858;8.768;2024-02-15T12:47:21;99249.03;;;20.39;38.40
6506;BME280;3286;49.858;8.768;2024-02-15T12:49:48;99248.03;;;20.79;37.54
6506;BME280;3286;49.858;8.768;2024-02-15T12:52:35;99245.38;;;21.05;37.55
6506;BME280;3286;49.858;8.768;2024-02-15T12:55:10;99259.78;;;19.33;40.26
6506;BME280;3286;49.858;8.768;2024-02-15T12:57:37;99247.94;;;20.08;39.51
6506;BME280;3286;49.858;8.768;2024-02-15T13:00:08;99241.25;;;19.59;40.21
6506;BME280;3286;49.858;8.768;2024-02-15T13:02:40;99243.31;;;20.29;38.94
6506;BME280;3286;49.858;8.768;2024-02-15T13:05:07;99240.81;;;20.73;38.43
6506;BME280;3286;49.858;8.768;2024-02-15T13:07:36;99244.50;;;20.40;39.02
6506;BME280;3286;49.858;8.768;2024-02-15T13:10:03;99235.47;;;20.73;38.14
6506;BME280;3286;49.858;8.768;2024-02-15T13:12:32;99234.38;;;21.13;37.71
6506;BME280;3286;49.858;8.768;2024-02-15T13:15:00;99237.94;;;20.29;38.49
6506;BME280;3286;49.858;8.768;2024-02-15T13:17:28;99239.84;;;20.22;39.65
6506;BME280;3286;49.858;8.768;2024-02-15T13:19:57;99236.63;;;20.52;38.79
6506;BME280;3286;49.858;8.768;2024-02-15T13:22:30;99235.63;;;19.80;39.63
6506;BME280;3286;49.858;8.768;2024-02-15T13:24:57;99237.13;;;19.02;41.46
6506;BME280;3286;49.858;8.768;2024-02-15T13:27:24;99223.81;;;20.08;39.95
6506;BME280;3286;49.858;8.768;2024-02-15T13:29:51;99224.69;;;19.95;39.76
6506;BME280;3286;49.858;8.768;2024-02-15T13:32:21;99221.78;;;19.83;40.07
6506;BME280;3286;49.858;8.768;2024-02-15T13:34:48;99216.56;;;20.16;39.56
6506;BME280;3286;49.858;8.768;2024-02-15T13:37:19;99217.16;;;19.32;40.96